createdAt,value
2023-05-18T00:02:21.663Z,6.71
2023-05-18T00:04:48.670Z,6.67
2023-05-18T00:07:15.699Z,6.66
2023-05-18T00:09:42.592Z,6.65
2023-05-18T00:12:10.177Z,6.70
2023-05-18T00:14:37.042Z,6.75
2023-05-18T00:17:03.923Z,6.72
2023-05-18T00:19:31.552Z,6.72
2023-05-18T00:21:58.393Z,6.65
2023-05-18T00:24:25.195Z,6.56
2023-05-18T00:26:52.034Z,6.53
2023-05-18T00:29:18.835Z,6.56
2023-05-18T00:31:46.065Z,6.60
2023-05-18T00:34:14.128Z,6.65
2023-05-18T00:36:41.388Z,6.67
2023-05-18T00:39:09.284Z,6.71
2023-05-18T00:41:36.121Z,6.75
2023-05-18T00:44:04.747Z,6.77
2023-05-18T00:46:31.915Z,6.80
2023-05-18T00:48:59.244Z,6.74
2023-05-18T00:51:26.389Z,6.70
2023-05-18T00:53:54.310Z,6.76
2023-05-18T00:56:23.766Z,6.77
2023-05-18T00:58:52.677Z,6.74
2023-05-18T01:01:19.538Z,6.69
2023-05-18T01:03:46.987Z,6.64
2023-05-18T01:06:14.959Z,6.67
2023-05-18T01:08:43.048Z,6.73
2023-05-18T01:11:16.952Z,6.74
2023-05-18T01:13:49.819Z,6.71
2023-05-18T01:16:24.295Z,6.64
2023-05-18T01:18:59.111Z,6.61
2023-05-18T01:22:04.334Z,6.63
2023-05-18T01:24:37.450Z,6.65
2023-05-18T01:27:07.157Z,6.64
2023-05-18T01:29:34.455Z,6.70
2023-05-18T01:32:01.295Z,6.73
2023-05-18T01:34:28.165Z,6.73
2023-05-18T01:36:54.926Z,6.68
2023-05-18T01:39:21.775Z,6.53
2023-05-18T01:41:59.134Z,6.61
2023-05-18T01:44:39.006Z,6.60
2023-05-18T01:47:13.191Z,6.59
2023-05-18T01:49:57.196Z,6.65
2023-05-18T01:52:36.845Z,6.66
2023-05-18T01:55:05.178Z,6.66
2023-05-18T01:57:33.833Z,6.66
2023-05-18T02:00:01.171Z,6.67
2023-05-18T02:02:28.909Z,6.66
2023-05-18T02:04:56.370Z,6.65
2023-05-18T02:07:23.309Z,6.67
2023-05-18T02:09:50.088Z,6.70
2023-05-18T02:12:16.907Z,6.70
2023-05-18T02:14:43.703Z,6.64
2023-05-18T02:17:11.724Z,6.66
2023-05-18T02:19:38.880Z,6.64
2023-05-18T02:22:09.414Z,6.68
2023-05-18T02:24:36.323Z,6.62
2023-05-18T02:27:03.208Z,6.66
2023-05-18T02:29:30.003Z,6.69
2023-05-18T02:31:56.753Z,6.62
2023-05-18T02:34:24.929Z,6.59
2023-05-18T02:36:51.725Z,6.63
2023-05-18T02:39:18.592Z,6.56
2023-05-18T02:41:45.451Z,6.57
2023-05-18T02:44:13.179Z,6.65
2023-05-18T02:46:39.951Z,6.60
2023-05-18T02:49:06.892Z,6.66
2023-05-18T02:51:33.696Z,6.64
2023-05-18T02:54:00.697Z,6.62
2023-05-18T02:56:28.785Z,6.50
2023-05-18T02:58:58.789Z,6.57
2023-05-18T03:01:27.249Z,6.66
2023-05-18T03:03:54.874Z,6.67
2023-05-18T03:06:26.828Z,6.66
2023-05-18T03:08:54.664Z,6.69
2023-05-18T03:11:22.743Z,6.71
2023-05-18T03:13:49.879Z,6.69
2023-05-18T03:16:16.741Z,6.68
2023-05-18T03:18:43.625Z,6.71
2023-05-18T03:21:13.716Z,6.68
2023-05-18T03:23:40.974Z,6.62
2023-05-18T03:26:11.791Z,6.55
2023-05-18T03:28:39.412Z,6.60
2023-05-18T03:31:06.702Z,6.54
2023-05-18T03:33:33.805Z,6.60
2023-05-18T03:36:04.027Z,6.63
2023-05-18T03:38:30.847Z,6.59
2023-05-18T03:40:57.662Z,6.63
2023-05-18T03:43:26.057Z,6.68
2023-05-18T03:45:53.747Z,6.66
2023-05-18T03:48:21.792Z,6.67
2023-05-18T03:50:48.959Z,6.58
2023-05-18T03:53:19.381Z,6.54
2023-05-18T03:55:46.660Z,6.60
2023-05-18T03:58:13.488Z,6.64
2023-05-18T04:00:40.699Z,6.65
2023-05-18T04:03:07.590Z,6.72
2023-05-18T04:05:34.550Z,6.77
2023-05-18T04:08:01.398Z,6.79
2023-05-18T04:10:28.171Z,6.82
2023-05-18T04:12:54.900Z,6.79
2023-05-18T04:15:21.839Z,6.83
2023-05-18T04:17:51.414Z,6.85
2023-05-18T04:20:18.882Z,6.88
2023-05-18T04:22:48.645Z,6.94
2023-05-18T04:25:16.141Z,6.93
2023-05-18T04:27:43.857Z,6.95
2023-05-18T04:30:11.704Z,6.98
2023-05-18T04:32:39.290Z,6.98
2023-05-18T04:35:07.282Z,7.00
2023-05-18T04:37:34.519Z,7.03
2023-05-18T04:40:02.296Z,6.97
2023-05-18T04:42:29.269Z,7.06
2023-05-18T04:44:56.028Z,7.04
2023-05-18T04:47:23.996Z,7.02
2023-05-18T04:49:52.668Z,7.05
2023-05-18T04:52:22.134Z,7.04
2023-05-18T04:54:48.786Z,7.04
2023-05-18T04:57:15.530Z,7.03
2023-05-18T04:59:42.684Z,7.03
2023-05-18T05:02:09.544Z,7.05
2023-05-18T05:04:36.475Z,7.02
2023-05-18T05:07:03.394Z,7.00
2023-05-18T05:09:30.692Z,7.06
2023-05-18T05:11:57.504Z,7.12
2023-05-18T05:14:24.222Z,7.16
2023-05-18T05:16:51.010Z,7.15
2023-05-18T05:19:17.788Z,7.15
2023-05-18T05:21:44.602Z,7.14
2023-05-18T05:24:11.273Z,7.21
2023-05-18T05:26:38.022Z,7.09
2023-05-18T05:29:04.781Z,7.09
2023-05-18T05:31:31.686Z,7.12
2023-05-18T05:33:58.435Z,7.28
2023-05-18T05:36:25.211Z,7.26
2023-05-18T05:38:51.972Z,7.27
2023-05-18T05:41:18.803Z,7.24
2023-05-18T05:43:45.733Z,7.35
2023-05-18T05:46:12.514Z,7.26
2023-05-18T05:48:39.274Z,7.24
2023-05-18T05:51:06.084Z,7.28
2023-05-18T05:53:33.024Z,7.38
2023-05-18T05:55:59.774Z,7.40
2023-05-18T05:58:26.659Z,7.41
2023-05-18T06:00:53.414Z,7.49
2023-05-18T06:03:20.418Z,7.52
2023-05-18T06:05:47.344Z,7.58
2023-05-18T06:08:14.110Z,7.48
2023-05-18T06:10:41.466Z,7.55
2023-05-18T06:13:08.293Z,7.64
2023-05-18T06:15:35.088Z,7.75
2023-05-18T06:18:02.040Z,7.88
2023-05-18T06:20:28.974Z,7.79
2023-05-18T06:22:56.676Z,7.80
2023-05-18T06:25:24.462Z,7.75
2023-05-18T06:27:52.098Z,7.82
2023-05-18T06:30:19.137Z,7.72
2023-05-18T06:32:46.003Z,7.60
2023-05-18T06:35:13.144Z,7.63
2023-05-18T06:37:40.005Z,7.70
2023-05-18T06:40:08.407Z,7.64
2023-05-18T06:42:35.160Z,7.63
2023-05-18T06:45:02.364Z,7.64
2023-05-18T06:47:29.149Z,7.69
2023-05-18T06:49:55.936Z,7.75
2023-05-18T06:52:25.537Z,7.71
2023-05-18T06:54:53.254Z,7.84
2023-05-18T06:57:20.045Z,7.81
2023-05-18T06:59:50.657Z,7.84
2023-05-18T07:02:17.461Z,7.99
2023-05-18T07:04:44.218Z,7.96
2023-05-18T07:07:11.037Z,8.08
2023-05-18T07:09:37.868Z,8.02
2023-05-18T07:12:05.004Z,8.13
2023-05-18T07:14:31.796Z,8.13
2023-05-18T07:16:58.585Z,8.18
2023-05-18T07:19:25.377Z,8.18
2023-05-18T07:21:52.145Z,8.20
2023-05-18T07:24:19.456Z,8.39
2023-05-18T07:26:46.595Z,8.52
2023-05-18T07:29:13.393Z,8.43
2023-05-18T07:31:41.402Z,8.53
2023-05-18T07:34:08.404Z,8.45
2023-05-18T07:36:35.188Z,8.51
2023-05-18T07:39:01.970Z,8.68
2023-05-18T07:41:28.817Z,8.70
2023-05-18T07:43:55.701Z,8.82
2023-05-18T07:46:22.602Z,8.95
2023-05-18T07:48:49.448Z,8.79
2023-05-18T07:51:16.477Z,8.77
2023-05-18T07:53:43.350Z,8.92
2023-05-18T07:56:10.098Z,8.85
2023-05-18T07:58:37.408Z,8.94
2023-05-18T08:01:04.334Z,8.92
2023-05-18T08:03:31.388Z,9.21
2023-05-18T08:05:58.200Z,9.29
2023-05-18T08:08:25.010Z,9.03
2023-05-18T08:10:53.086Z,9.19
2023-05-18T08:13:19.893Z,9.40
2023-05-18T08:15:53.224Z,9.19
2023-05-18T08:18:26.469Z,9.36
2023-05-18T08:20:54.125Z,9.65
2023-05-18T08:23:21.142Z,9.38
2023-05-18T08:25:48.042Z,9.29
2023-05-18T08:28:14.760Z,9.61
2023-05-18T08:30:41.681Z,9.63
2023-05-18T08:33:09.364Z,9.72
2023-05-18T08:35:36.268Z,9.70
2023-05-18T08:38:05.516Z,9.80
2023-05-18T08:40:43.949Z,9.67
2023-05-18T08:43:19.125Z,9.84
2023-05-18T08:45:53.213Z,9.84
2023-05-18T08:48:23.394Z,9.84
2023-05-18T08:50:54.145Z,9.67
2023-05-18T08:53:21.822Z,9.74
2023-05-18T08:55:50.100Z,9.83
2023-05-18T08:58:19.944Z,9.85
2023-05-18T09:00:46.770Z,9.85
2023-05-18T09:03:14.515Z,9.91
2023-05-18T09:05:42.134Z,9.91
2023-05-18T09:08:09.848Z,9.73
2023-05-18T09:10:36.905Z,9.75
2023-05-18T09:13:05.542Z,9.63
2023-05-18T09:15:33.394Z,9.75
2023-05-18T09:18:00.275Z,9.85
2023-05-18T09:20:28.120Z,10.10
2023-05-18T09:22:54.925Z,10.19
2023-05-18T09:25:21.824Z,10.14
2023-05-18T09:27:49.252Z,10.19
2023-05-18T09:30:16.140Z,10.52
2023-05-18T09:32:43.580Z,10.72
2023-05-18T09:35:10.451Z,11.17
2023-05-18T09:37:37.442Z,10.92
2023-05-18T09:40:10.811Z,10.99
2023-05-18T09:42:42.492Z,10.92
2023-05-18T09:45:29.367Z,11.13
2023-05-18T09:47:57.276Z,11.03
2023-05-18T09:50:24.839Z,11.02
2023-05-18T09:52:51.755Z,11.31
2023-05-18T09:55:19.674Z,11.23
2023-05-18T09:57:48.334Z,11.35
2023-05-18T10:00:16.952Z,11.38
2023-05-18T10:02:49.092Z,11.78
2023-05-18T10:05:23.255Z,11.10
2023-05-18T10:07:54.930Z,11.23
2023-05-18T10:10:24.211Z,11.42
2023-05-18T10:12:51.990Z,11.50
2023-05-18T10:15:21.271Z,11.53
2023-05-18T10:17:51.124Z,11.67
2023-05-18T10:20:20.498Z,11.67
2023-05-18T10:22:48.292Z,11.70
2023-05-18T10:25:26.811Z,11.78
2023-05-18T10:27:57.057Z,11.35
2023-05-18T10:30:24.338Z,11.33
2023-05-18T10:32:52.000Z,11.56
2023-05-18T10:35:19.286Z,11.51
2023-05-18T10:37:50.412Z,11.61
2023-05-18T10:40:18.542Z,11.56
2023-05-18T10:42:46.229Z,11.50
2023-05-18T10:45:13.236Z,11.45
2023-05-18T10:47:40.486Z,11.09
2023-05-18T10:50:09.056Z,11.05
2023-05-18T10:52:37.914Z,11.04
2023-05-18T10:55:05.280Z,11.27
2023-05-18T10:57:44.817Z,11.26
2023-05-18T11:00:12.448Z,11.33
2023-05-18T11:02:42.890Z,11.23
2023-05-18T11:05:10.979Z,11.53
2023-05-18T11:07:38.436Z,11.51
2023-05-18T11:10:10.686Z,11.27
2023-05-18T11:12:41.603Z,11.50
2023-05-18T11:15:09.032Z,11.52
2023-05-18T11:17:36.148Z,11.74
2023-05-18T11:20:09.430Z,11.88
2023-05-18T11:22:47.913Z,11.69
2023-05-18T11:25:33.086Z,11.97
2023-05-18T11:28:02.573Z,12.07
2023-05-18T11:30:37.965Z,12.05
2023-05-18T11:33:24.985Z,11.75
2023-05-18T11:35:55.449Z,11.78
2023-05-18T11:38:23.179Z,11.99
2023-05-18T11:40:51.191Z,11.79
2023-05-18T11:43:25.263Z,11.69
2023-05-18T11:45:59.022Z,11.75
2023-05-18T11:48:28.139Z,11.80
2023-05-18T11:50:55.557Z,11.46
2023-05-18T11:53:26.877Z,11.57
2023-05-18T11:55:57.252Z,11.47
2023-05-18T11:58:27.079Z,11.71
2023-05-18T12:00:56.000Z,11.65
2023-05-18T12:03:26.694Z,11.64
2023-05-18T12:05:54.252Z,11.72
2023-05-18T12:08:21.963Z,11.30
2023-05-18T12:10:51.914Z,11.57
2023-05-18T12:13:18.901Z,11.54
2023-05-18T12:15:45.884Z,11.73
2023-05-18T12:18:12.850Z,11.65
2023-05-18T12:20:40.631Z,11.54
2023-05-18T12:23:07.497Z,11.81
2023-05-18T12:25:34.500Z,11.75
2023-05-18T12:28:02.263Z,11.64
2023-05-18T12:30:35.642Z,11.74
2023-05-18T12:33:03.915Z,11.87
2023-05-18T12:35:31.510Z,11.81
2023-05-18T12:38:02.183Z,11.88
2023-05-18T12:40:46.585Z,11.79
2023-05-18T12:43:13.644Z,11.77
2023-05-18T12:45:41.208Z,11.70
2023-05-18T12:48:09.473Z,11.75
2023-05-18T12:50:38.909Z,11.65
2023-05-18T12:53:05.752Z,11.54
2023-05-18T12:55:33.437Z,11.70
2023-05-18T12:58:04.088Z,11.73
2023-05-18T13:00:34.917Z,11.59
2023-05-18T13:03:11.630Z,11.80
2023-05-18T13:05:45.867Z,11.89
2023-05-18T13:08:18.894Z,11.82
2023-05-18T13:10:46.368Z,11.88
2023-05-18T13:13:16.795Z,11.39
2023-05-18T13:15:44.043Z,11.58
2023-05-18T13:18:11.896Z,11.60
2023-05-18T13:20:50.906Z,11.57
2023-05-18T13:23:20.053Z,11.47
2023-05-18T13:25:47.148Z,11.34
2023-05-18T13:28:15.177Z,11.53
2023-05-18T13:30:42.947Z,11.58
2023-05-18T13:33:10.859Z,11.61
2023-05-18T13:35:40.416Z,11.32
2023-05-18T13:38:07.305Z,11.16
2023-05-18T13:40:34.307Z,11.25
2023-05-18T13:43:01.129Z,11.19
2023-05-18T13:45:27.966Z,11.27
2023-05-18T13:47:54.792Z,11.25
2023-05-18T13:50:23.052Z,11.27
2023-05-18T13:52:50.260Z,11.23
2023-05-18T13:55:17.039Z,11.34
2023-05-18T13:57:44.991Z,11.32
2023-05-18T14:00:13.651Z,11.28
2023-05-18T14:02:41.649Z,11.49
2023-05-18T14:05:09.311Z,11.54
2023-05-18T14:07:40.072Z,11.31
2023-05-18T14:10:08.310Z,11.26
2023-05-18T14:12:35.820Z,11.19
2023-05-18T14:15:03.417Z,11.34
2023-05-18T14:17:30.550Z,11.50
2023-05-18T14:19:57.616Z,11.41
2023-05-18T14:22:26.318Z,11.36
2023-05-18T14:24:53.704Z,11.38
2023-05-18T14:27:20.675Z,11.17
2023-05-18T14:29:48.280Z,11.22
2023-05-18T14:32:15.128Z,11.25
2023-05-18T14:34:41.918Z,11.15
2023-05-18T14:37:08.857Z,11.27
2023-05-18T14:39:36.150Z,11.46
2023-05-18T14:42:02.954Z,11.42
2023-05-18T14:44:29.770Z,11.39
2023-05-18T14:46:57.067Z,11.38
2023-05-18T14:49:23.815Z,11.46
2023-05-18T14:51:50.784Z,11.62
2023-05-18T14:54:19.094Z,11.50
2023-05-18T14:56:46.279Z,11.63
2023-05-18T14:59:13.035Z,11.56
2023-05-18T15:01:39.866Z,11.44
2023-05-18T15:04:06.708Z,11.40
2023-05-18T15:06:33.827Z,11.45
2023-05-18T15:09:00.821Z,11.61
2023-05-18T15:11:27.570Z,11.53
2023-05-18T15:13:54.330Z,11.53
2023-05-18T15:16:21.147Z,11.46
2023-05-18T15:18:47.961Z,11.38
2023-05-18T15:21:14.840Z,11.45
2023-05-18T15:23:41.667Z,11.44
2023-05-18T15:26:09.251Z,11.38
2023-05-18T15:28:36.352Z,11.33
2023-05-18T15:31:03.133Z,11.40
2023-05-18T15:33:29.892Z,11.49
2023-05-18T15:35:56.689Z,11.30
2023-05-18T15:38:23.460Z,11.29
2023-05-18T15:40:50.572Z,11.39
2023-05-18T15:43:17.589Z,11.24
2023-05-18T15:45:44.521Z,11.28
2023-05-18T15:48:11.595Z,11.33
2023-05-18T15:50:38.410Z,11.29
2023-05-18T15:53:06.119Z,11.04
2023-05-18T15:55:32.922Z,10.98
2023-05-18T15:57:59.768Z,11.13
2023-05-18T16:00:26.527Z,11.11
2023-05-18T16:02:53.424Z,11.17
2023-05-18T16:05:20.284Z,11.27
2023-05-18T16:07:47.164Z,11.29
2023-05-18T16:10:14.527Z,11.21
2023-05-18T16:12:41.531Z,11.13
2023-05-18T16:15:08.682Z,11.05
2023-05-18T16:17:35.683Z,11.00
2023-05-18T16:20:03.955Z,11.05
2023-05-18T16:22:31.072Z,11.00
2023-05-18T16:24:59.064Z,10.96
2023-05-18T16:27:26.016Z,10.79
2023-05-18T16:29:53.080Z,11.00
2023-05-18T16:32:19.928Z,10.91
2023-05-18T16:34:46.722Z,10.91
2023-05-18T16:37:13.457Z,11.03
2023-05-18T16:39:40.204Z,10.95
2023-05-18T16:42:07.809Z,10.87
2023-05-18T16:44:36.285Z,10.85
2023-05-18T16:47:03.132Z,10.85
2023-05-18T16:49:30.583Z,10.80
2023-05-18T16:51:57.420Z,10.80
2023-05-18T16:54:24.177Z,10.89
2023-05-18T16:56:51.052Z,10.92
2023-05-18T16:59:17.898Z,10.86
2023-05-18T17:01:44.879Z,10.87
2023-05-18T17:04:11.958Z,10.76
2023-05-18T17:06:39.067Z,10.81
2023-05-18T17:09:06.511Z,10.85
2023-05-18T17:11:33.687Z,10.92
2023-05-18T17:14:01.684Z,10.88
2023-05-18T17:16:28.736Z,10.83
2023-05-18T17:18:56.475Z,10.85
2023-05-18T17:21:24.093Z,10.89
2023-05-18T17:23:51.005Z,10.89
2023-05-18T17:26:17.797Z,10.87
2023-05-18T17:28:44.563Z,10.93
2023-05-18T17:31:11.553Z,10.78
2023-05-18T17:33:38.293Z,10.67
2023-05-18T17:36:05.291Z,10.65
2023-05-18T17:38:32.169Z,10.66
2023-05-18T17:40:58.854Z,10.59
2023-05-18T17:43:25.784Z,10.47
2023-05-18T17:45:52.530Z,10.54
2023-05-18T17:48:19.465Z,10.52
2023-05-18T17:50:47.880Z,10.40
2023-05-18T17:53:14.790Z,10.36
2023-05-18T17:55:41.862Z,10.32
2023-05-18T17:58:08.787Z,10.32
2023-05-18T18:00:35.645Z,10.24
2023-05-18T18:03:02.556Z,10.18
2023-05-18T18:05:29.976Z,10.18
2023-05-18T18:08:01.784Z,10.18
2023-05-18T18:10:29.526Z,10.20
2023-05-18T18:12:56.354Z,10.13
2023-05-18T18:15:27.454Z,10.12
2023-05-18T18:20:21.645Z,10.06
2023-05-18T18:22:48.481Z,10.01
2023-05-18T18:25:15.361Z,10.01
2023-05-18T18:27:42.083Z,9.99
2023-05-18T18:30:09.492Z,9.96
2023-05-18T18:32:36.369Z,9.99
2023-05-18T18:35:03.181Z,9.98
2023-05-18T18:37:29.948Z,9.94
2023-05-18T18:39:56.750Z,9.86
2023-05-18T18:42:23.676Z,9.88
2023-05-18T18:44:52.987Z,9.95
2023-05-18T18:47:19.856Z,9.93
2023-05-18T18:49:46.650Z,9.95
2023-05-18T18:52:14.093Z,9.93
2023-05-18T18:54:41.222Z,9.87
2023-05-18T18:57:08.228Z,9.77
2023-05-18T18:59:35.640Z,9.80
2023-05-18T19:02:02.466Z,9.71
2023-05-18T19:04:29.493Z,9.74
2023-05-18T19:06:56.730Z,9.73
2023-05-18T19:09:23.515Z,9.75
2023-05-18T19:11:50.503Z,9.83
2023-05-18T19:14:17.315Z,9.80
2023-05-18T19:16:44.158Z,9.74
2023-05-18T19:19:11.133Z,9.77
2023-05-18T19:21:38.427Z,9.67
2023-05-18T19:24:07.430Z,9.71
2023-05-18T19:26:34.769Z,9.67
2023-05-18T19:29:01.654Z,9.64
2023-05-18T19:31:31.756Z,9.53
2023-05-18T19:34:01.629Z,9.51
2023-05-18T19:36:28.487Z,9.52
2023-05-18T19:38:55.958Z,9.50
2023-05-18T19:41:24.795Z,9.51
2023-05-18T19:43:51.787Z,9.49
2023-05-18T19:46:19.312Z,9.45
2023-05-18T19:48:46.848Z,9.47
2023-05-18T19:51:13.574Z,9.44
2023-05-18T19:53:40.516Z,9.43
2023-05-18T19:56:07.251Z,9.46
2023-05-18T19:58:34.028Z,9.45
2023-05-18T20:01:00.832Z,9.62
2023-05-18T20:03:27.883Z,9.38
2023-05-18T20:05:56.230Z,9.38
2023-05-18T20:08:23.173Z,9.40
2023-05-18T20:10:50.023Z,9.38
2023-05-18T20:13:16.904Z,9.42
2023-05-18T20:15:43.797Z,9.42
2023-05-18T20:18:10.963Z,9.40
2023-05-18T20:20:37.827Z,9.43
2023-05-18T20:23:06.920Z,9.38
2023-05-18T20:25:35.410Z,9.35
2023-05-18T20:28:03.517Z,9.37
2023-05-18T20:30:30.801Z,9.38
2023-05-18T20:33:00.483Z,9.37
2023-05-18T20:35:27.240Z,9.34
2023-05-18T20:37:59.807Z,9.27
2023-05-18T20:40:27.712Z,9.14
2023-05-18T20:42:55.021Z,9.18
2023-05-18T20:45:22.783Z,9.19
2023-05-18T20:47:50.899Z,9.26
2023-05-18T20:50:18.462Z,9.21
2023-05-18T20:52:46.289Z,9.25
2023-05-18T20:55:14.063Z,9.20
2023-05-18T20:57:41.601Z,9.19
2023-05-18T21:00:09.274Z,9.20
2023-05-18T21:02:36.976Z,9.20
2023-05-18T21:05:04.808Z,9.20
2023-05-18T21:07:34.700Z,9.14
2023-05-18T21:10:02.944Z,9.15
2023-05-18T21:12:29.920Z,9.14
2023-05-18T21:14:56.652Z,9.08
2023-05-18T21:17:23.410Z,9.15
2023-05-18T21:19:50.719Z,9.07
2023-05-18T21:22:17.424Z,9.14
2023-05-18T21:24:44.207Z,9.06
2023-05-18T21:27:10.972Z,8.99
2023-05-18T21:29:37.777Z,8.99
2023-05-18T21:32:04.677Z,9.03
2023-05-18T21:34:31.558Z,8.99
2023-05-18T21:36:58.259Z,8.96
2023-05-18T21:39:24.968Z,8.89
2023-05-18T21:41:51.731Z,8.92
2023-05-18T21:44:18.508Z,8.84
2023-05-18T21:46:45.829Z,8.87
2023-05-18T21:49:12.751Z,8.87
2023-05-18T21:51:39.499Z,8.86
2023-05-18T21:54:06.276Z,8.88
2023-05-18T21:56:34.864Z,8.85
2023-05-18T21:59:01.691Z,8.83
2023-05-18T22:01:28.475Z,8.80
2023-05-18T22:03:55.257Z,8.79
2023-05-18T22:06:22.682Z,8.75
2023-05-18T22:08:50.200Z,8.66
2023-05-18T22:11:16.985Z,8.66
2023-05-18T22:13:44.767Z,8.57
2023-05-18T22:16:11.550Z,8.48
2023-05-18T22:18:38.281Z,8.34
2023-05-18T22:21:05.061Z,8.25
2023-05-18T22:23:31.771Z,8.23
2023-05-18T22:25:58.493Z,8.25
2023-05-18T22:28:25.186Z,8.18
2023-05-18T22:30:52.588Z,8.09
2023-05-18T22:33:21.264Z,7.96
2023-05-18T22:35:48.235Z,7.81
2023-05-18T22:38:15.780Z,7.75
2023-05-18T22:40:42.923Z,7.77
2023-05-18T22:43:09.620Z,7.79
2023-05-18T22:45:36.442Z,7.74
2023-05-18T22:48:03.390Z,7.67
2023-05-18T22:50:30.684Z,7.60
2023-05-18T22:52:57.669Z,7.57
2023-05-18T22:55:24.421Z,7.53
2023-05-18T22:57:51.120Z,7.48
2023-05-18T23:00:18.072Z,7.48
2023-05-18T23:02:44.914Z,7.44
2023-05-18T23:05:11.960Z,7.47
2023-05-18T23:07:39.115Z,7.41
2023-05-18T23:10:06.906Z,7.41
2023-05-18T23:12:33.822Z,7.47
2023-05-18T23:15:04.231Z,7.47
2023-05-18T23:17:32.003Z,7.49
2023-05-18T23:20:02.870Z,7.48
2023-05-18T23:22:29.596Z,7.38
2023-05-18T23:24:56.410Z,7.40
2023-05-18T23:27:23.126Z,7.41
2023-05-18T23:29:49.967Z,7.34
2023-05-18T23:32:16.811Z,7.43
2023-05-18T23:34:44.526Z,7.43
2023-05-18T23:37:11.430Z,7.47
2023-05-18T23:39:41.631Z,7.45
2023-05-18T23:42:09.026Z,7.36
2023-05-18T23:44:36.057Z,7.41
2023-05-18T23:47:03.097Z,7.39
2023-05-18T23:49:30.146Z,7.44
2023-05-18T23:52:01.393Z,7.48
2023-05-18T23:54:28.705Z,7.49
2023-05-18T23:56:56.205Z,7.50
2023-05-18T23:59:23.176Z,7.48
